sensor_id;sensor_type;location;lat;lon;timestamp;pressure;altitude;pressure_sealevel;temperature;humidity
72570;BME280;60594;50.204;8.844;2022-09-02T00:00:54;100115.41;;;17.99;49.03
72570;BME280;60594;50.204;8.844;2022-09-02T00:03:29;100124.34;;;17.99;48.97
72570;BME280;60594;50.204;8.844;2022-09-02T00:05:57;100115.41;;;17.99;48.90
72570;BME280;60594;50.204;8.844;2022-09-02T00:08:23;100109.84;;;17.92;49.22
72570;BME280;60594;50.204;8.844;2022-09-02T00:10:51;100117.25;;;17.90;49.06
72570;BME280;60594;50.204;8.844;2022-09-02T00:13:19;100113.41;;;17.85;49.41
72570;BME280;60594;50.204;8.844;2022-09-02T00:15:46;100116.44;;;17.82;49.32
72570;BME280;60594;50.204;8.844;2022-09-02T00:18:14;100111.75;;;17.76;49.06
72570;BME280;60594;50.204;8.844;2022-09-02T00:20:43;100106.69;;;17.73;49.45
72570;BME280;60594;50.204;8.844;2022-09-02T00:23:11;100106.84;;;17.71;49.97
72570;BME280;60594;50.204;8.844;2022-09-02T00:25:38;100105.50;;;17.75;49.40
72570;BME280;60594;50.204;8.844;2022-09-02T00:28:06;100110.75;;;17.69;49.75
72570;BME280;60594;50.204;8.844;2022-09-02T00:30:33;100104.84;;;17.57;49.96
72570;BME280;60594;50.204;8.844;2022-09-02T00:33:01;100102.16;;;17.57;50.13
72570;BME280;60594;50.204;8.844;2022-09-02T00:35:29;100085.97;;;17.49;50.05
72570;BME280;60594;50.204;8.844;2022-09-02T00:37:55;100098.63;;;17.57;50.12
72570;BME280;60594;50.204;8.844;2022-09-02T00:40:23;100096.91;;;17.56;50.20
72570;BME280;60594;50.204;8.844;2022-09-02T00:42:50;100092.88;;;17.52;50.47
72570;BME280;60594;50.204;8.844;2022-09-02T00:45:19;100100.31;;;17.50;50.15
72570;BME280;60594;50.204;8.844;2022-09-02T00:47:47;100094.06;;;17.49;50.19
72570;BME280;60594;50.204;8.844;2022-09-02T00:50:20;100090.88;;;17.46;50.24
72570;BME280;60594;50.204;8.844;2022-09-02T00:52:52;100091.53;;;17.40;50.44
72570;BME280;60594;50.204;8.844;2022-09-02T00:55:23;100091.53;;;17.48;50.04
72570;BME280;60594;50.204;8.844;2022-09-02T00:58:00;100093.91;;;17.43;50.30
72570;BME280;60594;50.204;8.844;2022-09-02T01:00:33;100095.75;;;17.42;50.17
72570;BME280;60594;50.204;8.844;2022-09-02T01:03:06;100089.16;;;17.37;50.22
72570;BME280;60594;50.204;8.844;2022-09-02T01:05:39;100084.78;;;17.36;50.49
72570;BME280;60594;50.204;8.844;2022-09-02T01:08:15;100085.47;;;17.38;50.51
72570;BME280;60594;50.204;8.844;2022-09-02T01:10:46;100079.72;;;17.41;50.85
72570;BME280;60594;50.204;8.844;2022-09-02T01:13:14;100079.41;;;17.44;50.67
72570;BME280;60594;50.204;8.844;2022-09-02T01:15:45;100088.81;;;17.40;50.42
72570;BME280;60594;50.204;8.844;2022-09-02T01:18:15;100077.03;;;17.33;50.51
72570;BME280;60594;50.204;8.844;2022-09-02T01:20:43;100084.63;;;17.37;50.44
72570;BME280;60594;50.204;8.844;2022-09-02T01:23:10;100083.59;;;17.38;50.80
72570;BME280;60594;50.204;8.844;2022-09-02T01:25:37;100094.22;;;17.40;50.70
72570;BME280;60594;50.204;8.844;2022-09-02T01:28:08;100091.19;;;17.35;50.75
72570;BME280;60594;50.204;8.844;2022-09-02T01:30:38;100080.44;;;17.27;50.58
72570;BME280;60594;50.204;8.844;2022-09-02T01:33:08;100089.84;;;17.39;50.54
72570;BME280;60594;50.204;8.844;2022-09-02T01:35:36;100082.09;;;17.36;51.02
72570;BME280;60594;50.204;8.844;2022-09-02T01:38:03;100086.63;;;17.35;50.93
72570;BME280;60594;50.204;8.844;2022-09-02T01:40:30;100078.38;;;17.37;50.74
72570;BME280;60594;50.204;8.844;2022-09-02T01:43:01;100084.63;;;17.37;50.87
72570;BME280;60594;50.204;8.844;2022-09-02T01:45:28;100085.28;;;17.39;51.23
72570;BME280;60594;50.204;8.844;2022-09-02T01:47:55;100071.66;;;17.33;50.76
72570;BME280;60594;50.204;8.844;2022-09-02T01:50:22;100087.00;;;17.32;51.42
72570;BME280;60594;50.204;8.844;2022-09-02T01:52:50;100077.03;;;17.33;51.33
72570;BME280;60594;50.204;8.844;2022-09-02T01:55:17;100078.22;;;17.30;51.81
72570;BME280;60594;50.204;8.844;2022-09-02T01:57:44;100070.16;;;17.22;51.93
72570;BME280;60594;50.204;8.844;2022-09-02T02:00:12;100082.75;;;17.22;51.84
72570;BME280;60594;50.204;8.844;2022-09-02T02:02:39;100078.06;;;17.16;51.71
72570;BME280;60594;50.204;8.844;2022-09-02T02:05:07;100079.75;;;17.09;51.54
72570;BME280;60594;50.204;8.844;2022-09-02T02:07:34;100093.69;;;17.12;52.22
72570;BME280;60594;50.204;8.844;2022-09-02T02:10:01;100087.81;;;17.09;52.02
72570;BME280;60594;50.204;8.844;2022-09-02T02:12:30;100080.22;;;17.12;51.74
72570;BME280;60594;50.204;8.844;2022-09-02T02:15:01;100092.03;;;17.11;51.98
72570;BME280;60594;50.204;8.844;2022-09-02T02:17:27;100087.97;;;17.07;52.15
72570;BME280;60594;50.204;8.844;2022-09-02T02:19:54;100086.97;;;17.08;51.88
72570;BME280;60594;50.204;8.844;2022-09-02T02:22:20;100085.28;;;17.07;52.04
72570;BME280;60594;50.204;8.844;2022-09-02T02:24:48;100087.47;;;17.12;51.97
72570;BME280;60594;50.204;8.844;2022-09-02T02:27:15;100089.34;;;17.11;51.76
72570;BME280;60594;50.204;8.844;2022-09-02T02:29:41;100082.25;;;17.10;51.79
72570;BME280;60594;50.204;8.844;2022-09-02T02:32:08;100080.56;;;17.09;52.33
72570;BME280;60594;50.204;8.844;2022-09-02T02:34:35;100071.50;;;17.10;51.97
72570;BME280;60594;50.204;8.844;2022-09-02T02:37:01;100077.53;;;17.04;52.10
72570;BME280;60594;50.204;8.844;2022-09-02T02:39:28;100077.22;;;17.07;52.13
72570;BME280;60594;50.204;8.844;2022-09-02T02:41:54;100087.66;;;17.10;52.09
72570;BME280;60594;50.204;8.844;2022-09-02T02:44:20;100075.34;;;17.00;52.26
72570;BME280;60594;50.204;8.844;2022-09-02T02:46:47;100079.03;;;16.99;52.25
72570;BME280;60594;50.204;8.844;2022-09-02T02:49:15;100079.38;;;16.88;52.49
72570;BME280;60594;50.204;8.844;2022-09-02T02:51:41;100077.34;;;16.89;52.46
72570;BME280;60594;50.204;8.844;2022-09-02T02:54:08;100078.50;;;16.87;52.93
72570;BME280;60594;50.204;8.844;2022-09-02T02:56:36;100080.72;;;16.83;52.86
72570;BME280;60594;50.204;8.844;2022-09-02T02:59:04;100079.69;;;16.84;53.17
72570;BME280;60594;50.204;8.844;2022-09-02T03:01:33;100080.00;;;16.81;52.77
72570;BME280;60594;50.204;8.844;2022-09-02T03:03:59;100087.75;;;16.84;52.95
72570;BME280;60594;50.204;8.844;2022-09-02T03:06:27;100082.88;;;16.80;53.03
72570;BME280;60594;50.204;8.844;2022-09-02T03:08:55;100060.47;;;16.63;52.93
72570;BME280;60594;50.204;8.844;2022-09-02T03:11:23;100085.22;;;16.75;53.58
72570;BME280;60594;50.204;8.844;2022-09-02T03:13:53;100077.63;;;16.70;53.49
72570;BME280;60594;50.204;8.844;2022-09-02T03:16:20;100079.13;;;16.65;52.97
72570;BME280;60594;50.204;8.844;2022-09-02T03:18:48;100076.59;;;16.55;53.71
72570;BME280;60594;50.204;8.844;2022-09-02T03:21:16;100075.78;;;16.55;53.48
72570;BME280;60594;50.204;8.844;2022-09-02T03:23:45;100061.22;;;16.40;54.05
72570;BME280;60594;50.204;8.844;2022-09-02T03:26:15;100069.47;;;16.38;54.11
72570;BME280;60594;50.204;8.844;2022-09-02T03:28:42;100070.78;;;16.34;54.27
72570;BME280;60594;50.204;8.844;2022-09-02T03:31:14;100071.91;;;16.24;54.65
72570;BME280;60594;50.204;8.844;2022-09-02T03:33:41;100067.84;;;16.20;54.76
72570;BME280;60594;50.204;8.844;2022-09-02T03:36:08;100072.38;;;16.19;54.26
72570;BME280;60594;50.204;8.844;2022-09-02T03:38:35;100073.22;;;16.12;54.97
72570;BME280;60594;50.204;8.844;2022-09-02T03:41:03;100069.31;;;16.06;55.02
72570;BME280;60594;50.204;8.844;2022-09-02T03:43:30;100063.91;;;15.98;55.52
72570;BME280;60594;50.204;8.844;2022-09-02T03:45:57;100074.13;;;15.95;56.38
72570;BME280;60594;50.204;8.844;2022-09-02T03:48:23;100059.97;;;15.85;56.28
72570;BME280;60594;50.204;8.844;2022-09-02T03:50:50;100066.88;;;15.87;56.29
72570;BME280;60594;50.204;8.844;2022-09-02T03:53:18;100055.94;;;15.81;55.80
72570;BME280;60594;50.204;8.844;2022-09-02T03:55:44;100052.69;;;15.77;56.35
72570;BME280;60594;50.204;8.844;2022-09-02T03:58:13;100058.63;;;15.81;55.90
72570;BME280;60594;50.204;8.844;2022-09-02T04:00:42;100059.97;;;15.85;56.40
72570;BME280;60594;50.204;8.844;2022-09-02T04:03:10;100057.41;;;15.75;56.18
72570;BME280;60594;50.204;8.844;2022-09-02T04:05:37;100064.00;;;15.81;56.34
72570;BME280;60594;50.204;8.844;2022-09-02T04:08:04;100052.84;;;15.76;56.64
72570;BME280;60594;50.204;8.844;2022-09-02T04:10:31;100055.94;;;15.81;57.02
72570;BME280;60594;50.204;8.844;2022-09-02T04:12:58;100053.72;;;15.76;57.19
72570;BME280;60594;50.204;8.844;2022-09-02T04:15:25;100063.13;;;15.80;56.54
72570;BME280;60594;50.204;8.844;2022-09-02T04:17:52;100056.28;;;15.86;56.99
72570;BME280;60594;50.204;8.844;2022-09-02T04:20:20;100055.97;;;15.89;56.88
72570;BME280;60594;50.204;8.844;2022-09-02T04:22:48;100053.47;;;15.95;55.93
72570;BME280;60594;50.204;8.844;2022-09-02T04:25:15;100061.06;;;16.00;56.70
72570;BME280;60594;50.204;8.844;2022-09-02T04:27:44;100041.88;;;15.95;56.28
72570;BME280;60594;50.204;8.844;2022-09-02T04:30:11;100039.72;;;15.98;55.95
72570;BME280;60594;50.204;8.844;2022-09-02T04:32:42;100053.88;;;16.08;55.55
72570;BME280;60594;50.204;8.844;2022-09-02T04:35:09;100068.19;;;16.17;55.67
72570;BME280;60594;50.204;8.844;2022-09-02T04:37:37;100052.34;;;16.14;55.34
72570;BME280;60594;50.204;8.844;2022-09-02T04:40:05;100064.69;;;16.24;55.38
72570;BME280;60594;50.204;8.844;2022-09-02T04:42:32;100058.44;;;16.16;54.76
72570;BME280;60594;50.204;8.844;2022-09-02T04:45:02;100065.88;;;16.22;55.35
72570;BME280;60594;50.204;8.844;2022-09-02T04:47:29;100055.78;;;16.24;54.93
72570;BME280;60594;50.204;8.844;2022-09-02T04:49:57;100058.47;;;16.24;55.90
72570;BME280;60594;50.204;8.844;2022-09-02T04:52:24;100058.72;;;16.05;55.80
72570;BME280;60594;50.204;8.844;2022-09-02T04:54:51;100060.91;;;16.01;55.86
72570;BME280;60594;50.204;8.844;2022-09-02T04:57:18;100050.38;;;16.16;56.09
72570;BME280;60594;50.204;8.844;2022-09-02T04:59:45;100049.94;;;15.95;56.03
72570;BME280;60594;50.204;8.844;2022-09-02T05:02:11;100071.69;;;16.09;56.41
72570;BME280;60594;50.204;8.844;2022-09-02T05:04:38;100050.16;;;16.01;56.91
72570;BME280;60594;50.204;8.844;2022-09-02T05:07:10;100067.59;;;15.97;57.14
72570;BME280;60594;50.204;8.844;2022-09-02T05:09:42;100066.16;;;16.11;57.06
72570;BME280;60594;50.204;8.844;2022-09-02T05:12:09;100070.38;;;16.13;57.39
72570;BME280;60594;50.204;8.844;2022-09-02T05:14:45;100069.16;;;16.08;58.27
72570;BME280;60594;50.204;8.844;2022-09-02T05:17:14;100065.47;;;16.09;57.76
72570;BME280;60594;50.204;8.844;2022-09-02T05:19:44;100065.47;;;16.09;58.75
72570;BME280;60594;50.204;8.844;2022-09-02T05:22:10;100073.06;;;16.13;57.03
72570;BME280;60594;50.204;8.844;2022-09-02T05:24:41;100077.44;;;16.22;56.15
72570;BME280;60594;50.204;8.844;2022-09-02T05:27:11;100067.84;;;16.12;57.19
72570;BME280;60594;50.204;8.844;2022-09-02T05:29:39;100076.47;;;16.23;57.47
72570;BME280;60594;50.204;8.844;2022-09-02T05:32:07;100058.28;;;16.17;56.79
72570;BME280;60594;50.204;8.844;2022-09-02T05:34:35;100071.94;;;16.32;56.69
72570;BME280;60594;50.204;8.844;2022-09-02T05:37:03;100078.31;;;16.31;57.14
72570;BME280;60594;50.204;8.844;2022-09-02T05:39:33;100075.13;;;16.27;57.43
72570;BME280;60594;50.204;8.844;2022-09-02T05:42:00;100075.94;;;16.20;57.78
72570;BME280;60594;50.204;8.844;2022-09-02T05:44:27;100076.63;;;16.22;58.00
72570;BME280;60594;50.204;8.844;2022-09-02T05:46:57;100073.56;;;16.17;56.76
72570;BME280;60594;50.204;8.844;2022-09-02T05:49:24;100079.59;;;16.11;57.78
72570;BME280;60594;50.204;8.844;2022-09-02T05:52:12;100076.03;;;16.02;57.38
72570;BME280;60594;50.204;8.844;2022-09-02T05:54:42;100073.34;;;16.02;57.94
72570;BME280;60594;50.204;8.844;2022-09-02T05:57:15;100078.56;;;16.04;59.94
72570;BME280;60594;50.204;8.844;2022-09-02T05:59:51;100074.38;;;16.09;60.84
72570;BME280;60594;50.204;8.844;2022-09-02T06:02:25;100073.53;;;16.09;61.30
72570;BME280;60594;50.204;8.844;2022-09-02T06:04:53;100080.06;;;16.06;58.16
72570;BME280;60594;50.204;8.844;2022-09-02T06:07:22;100072.19;;;16.13;58.01
72570;BME280;60594;50.204;8.844;2022-09-02T06:09:52;100072.72;;;16.16;57.81
72570;BME280;60594;50.204;8.844;2022-09-02T06:12:22;100073.88;;;16.14;59.67
72570;BME280;60594;50.204;8.844;2022-09-02T06:14:50;100081.16;;;16.21;59.57
72570;BME280;60594;50.204;8.844;2022-09-02T06:17:18;100076.13;;;16.26;58.02
72570;BME280;60594;50.204;8.844;2022-09-02T06:19:49;100061.34;;;16.30;58.78
72570;BME280;60594;50.204;8.844;2022-09-02T06:22:16;100078.00;;;16.34;57.99
72570;BME280;60594;50.204;8.844;2022-09-02T06:24:44;100070.53;;;16.45;59.26
72570;BME280;60594;50.204;8.844;2022-09-02T06:27:17;100073.25;;;16.61;58.48
72570;BME280;60594;50.204;8.844;2022-09-02T06:29:48;100069.06;;;16.59;57.53
72570;BME280;60594;50.204;8.844;2022-09-02T06:32:19;100075.66;;;16.80;58.67
72570;BME280;60594;50.204;8.844;2022-09-02T06:34:47;100068.75;;;16.86;56.81
72570;BME280;60594;50.204;8.844;2022-09-02T06:37:15;100073.66;;;16.99;54.59
72570;BME280;60594;50.204;8.844;2022-09-02T06:39:43;100073.50;;;17.00;55.08
72570;BME280;60594;50.204;8.844;2022-09-02T06:42:16;100062.03;;;16.98;54.97
72570;BME280;60594;50.204;8.844;2022-09-02T06:44:59;100057.19;;;17.10;53.91
72570;BME280;60594;50.204;8.844;2022-09-02T06:47:27;100070.47;;;17.19;54.27
72570;BME280;60594;50.204;8.844;2022-09-02T06:49:53;100070.31;;;17.29;53.89
72570;BME280;60594;50.204;8.844;2022-09-02T06:52:21;100073.00;;;17.45;55.49
72570;BME280;60594;50.204;8.844;2022-09-02T06:54:48;100072.34;;;17.51;54.17
72570;BME280;60594;50.204;8.844;2022-09-02T06:57:16;100065.44;;;17.56;53.91
72570;BME280;60594;50.204;8.844;2022-09-02T06:59:44;100076.53;;;17.61;52.76
72570;BME280;60594;50.204;8.844;2022-09-02T07:02:12;100070.47;;;17.67;55.60
72570;BME280;60594;50.204;8.844;2022-09-02T07:04:40;100075.53;;;17.70;55.46
72570;BME280;60594;50.204;8.844;2022-09-02T07:07:25;100070.13;;;17.78;55.47
72570;BME280;60594;50.204;8.844;2022-09-02T07:09:59;100068.75;;;17.82;56.18
72570;BME280;60594;50.204;8.844;2022-09-02T07:12:26;100067.38;;;17.86;55.80
72570;BME280;60594;50.204;8.844;2022-09-02T07:14:58;100068.06;;;17.88;56.62
72570;BME280;60594;50.204;8.844;2022-09-02T07:17:33;100062.84;;;17.87;53.63
72570;BME280;60594;50.204;8.844;2022-09-02T07:20:04;100067.38;;;17.94;55.31
72570;BME280;60594;50.204;8.844;2022-09-02T07:22:37;100057.28;;;17.88;52.20
72570;BME280;60594;50.204;8.844;2022-09-02T07:25:06;100064.00;;;18.00;52.13
72570;BME280;60594;50.204;8.844;2022-09-02T07:27:34;100069.31;;;18.16;53.02
72570;BME280;60594;50.204;8.844;2022-09-02T07:30:01;100055.31;;;18.21;53.72
72570;BME280;60594;50.204;8.844;2022-09-02T07:32:30;100069.31;;;18.24;51.96
72570;BME280;60594;50.204;8.844;2022-09-02T07:34:56;100060.53;;;18.22;51.02
72570;BME280;60594;50.204;8.844;2022-09-02T07:37:23;100065.00;;;18.46;50.13
72570;BME280;60594;50.204;8.844;2022-09-02T07:39:51;100052.22;;;18.40;50.01
72570;BME280;60594;50.204;8.844;2022-09-02T07:42:18;100068.19;;;18.49;49.78
72570;BME280;60594;50.204;8.844;2022-09-02T07:44:46;100061.06;;;18.56;49.41
72570;BME280;60594;50.204;8.844;2022-09-02T07:47:12;100062.97;;;18.78;50.91
72570;BME280;60594;50.204;8.844;2022-09-02T07:49:42;100059.22;;;18.79;49.32
72570;BME280;60594;50.204;8.844;2022-09-02T07:52:09;100058.00;;;18.90;48.94
72570;BME280;60594;50.204;8.844;2022-09-02T07:54:37;100050.13;;;19.03;50.80
72570;BME280;60594;50.204;8.844;2022-09-02T07:57:06;100057.41;;;19.02;48.75
72570;BME280;60594;50.204;8.844;2022-09-02T07:59:34;100056.88;;;19.29;48.25
72570;BME280;60594;50.204;8.844;2022-09-02T08:02:03;100052.06;;;19.39;47.69
72570;BME280;60594;50.204;8.844;2022-09-02T08:04:29;100047.78;;;19.45;47.65
72570;BME280;60594;50.204;8.844;2022-09-02T08:06:56;100047.16;;;19.57;47.31
72570;BME280;60594;50.204;8.844;2022-09-02T08:09:22;100049.41;;;19.68;47.38
72570;BME280;60594;50.204;8.844;2022-09-02T08:11:55;100036.19;;;19.73;48.26
72570;BME280;60594;50.204;8.844;2022-09-02T08:14:26;100046.44;;;19.78;46.87
72570;BME280;60594;50.204;8.844;2022-09-02T08:16:56;100043.66;;;19.86;46.11
72570;BME280;60594;50.204;8.844;2022-09-02T08:19:24;100042.22;;;20.04;46.01
72570;BME280;60594;50.204;8.844;2022-09-02T08:22:03;100037.13;;;20.10;45.63
72570;BME280;60594;50.204;8.844;2022-09-02T08:24:32;100043.66;;;20.30;46.29
72570;BME280;60594;50.204;8.844;2022-09-02T08:26:58;100040.94;;;20.44;46.13
72570;BME280;60594;50.204;8.844;2022-09-02T08:29:25;100048.28;;;20.50;45.50
72570;BME280;60594;50.204;8.844;2022-09-02T08:31:51;100041.09;;;20.57;44.78
72570;BME280;60594;50.204;8.844;2022-09-02T08:34:18;100040.22;;;20.71;46.17
72570;BME280;60594;50.204;8.844;2022-09-02T08:36:44;100035.75;;;20.85;44.62
72570;BME280;60594;50.204;8.844;2022-09-02T08:39:11;100033.09;;;21.06;44.87
72570;BME280;60594;50.204;8.844;2022-09-02T08:44:20;100035.03;;;21.60;42.68
72570;BME280;60594;50.204;8.844;2022-09-02T08:46:51;100033.72;;;22.11;42.19
72570;BME280;60594;50.204;8.844;2022-09-02T08:49:33;100025.81;;;22.57;40.99
72570;BME280;60594;50.204;8.844;2022-09-02T08:52:02;100036.34;;;22.86;39.70
72570;BME280;60594;50.204;8.844;2022-09-02T08:54:49;100034.50;;;23.13;39.00
72570;BME280;60594;50.204;8.844;2022-09-02T08:57:17;100031.03;;;23.38;38.68
72570;BME280;60594;50.204;8.844;2022-09-02T08:59:44;100033.50;;;23.72;37.38
72570;BME280;60594;50.204;8.844;2022-09-02T09:02:31;100025.75;;;23.95;36.95
72570;BME280;60594;50.204;8.844;2022-09-02T09:16:34;100007.72;;;24.58;34.89
72570;BME280;60594;50.204;8.844;2022-09-02T09:19:12;100011.81;;;24.80;34.13
72570;BME280;60594;50.204;8.844;2022-09-02T09:21:40;100012.19;;;24.83;33.84
72570;BME280;60594;50.204;8.844;2022-09-02T09:26:39;100003.97;;;24.90;34.17
72570;BME280;60594;50.204;8.844;2022-09-02T09:29:06;100007.19;;;24.80;33.70
72570;BME280;60594;50.204;8.844;2022-09-02T09:31:34;100003.63;;;24.36;34.61
72570;BME280;60594;50.204;8.844;2022-09-02T09:34:07;100011.06;;;23.90;35.31
72570;BME280;60594;50.204;8.844;2022-09-02T09:39:28;99997.06;;;24.87;33.64
72570;BME280;60594;50.204;8.844;2022-09-02T09:42:11;99995.44;;;25.42;34.05
72570;BME280;60594;50.204;8.844;2022-09-02T09:44:44;99989.63;;;25.56;32.21
72570;BME280;60594;50.204;8.844;2022-09-02T09:47:20;99993.28;;;25.68;32.60
72570;BME280;60594;50.204;8.844;2022-09-02T09:49:49;99981.50;;;25.92;30.88
72570;BME280;60594;50.204;8.844;2022-09-02T09:52:27;99981.56;;;26.22;30.85
72570;BME280;60594;50.204;8.844;2022-09-02T09:55:19;99985.84;;;26.18;30.92
72570;BME280;60594;50.204;8.844;2022-09-02T09:57:48;99982.78;;;26.26;29.83
72570;BME280;60594;50.204;8.844;2022-09-02T10:00:28;99975.25;;;26.40;30.59
72570;BME280;60594;50.204;8.844;2022-09-02T10:03:00;99980.25;;;26.61;30.09
72570;BME280;60594;50.204;8.844;2022-09-02T10:05:34;99979.88;;;26.87;26.22
72570;BME280;60594;50.204;8.844;2022-09-02T10:10:30;99975.19;;;26.64;27.73
72570;BME280;60594;50.204;8.844;2022-09-02T10:13:20;99972.47;;;26.58;28.13
72570;BME280;60594;50.204;8.844;2022-09-02T10:26:49;99985.25;;;25.98;28.24
72570;BME280;60594;50.204;8.844;2022-09-02T10:34:49;99963.03;;;25.88;27.54
72570;BME280;60594;50.204;8.844;2022-09-02T10:40:14;99956.34;;;26.86;25.55
72570;BME280;60594;50.204;8.844;2022-09-02T10:51:00;99945.44;;;27.09;25.76
72570;BME280;60594;50.204;8.844;2022-09-02T10:53:32;99938.00;;;27.27;24.06
72570;BME280;60594;50.204;8.844;2022-09-02T10:56:05;99941.22;;;27.36;23.28
72570;BME280;60594;50.204;8.844;2022-09-02T11:01:07;99931.59;;;27.56;23.89
72570;BME280;60594;50.204;8.844;2022-09-02T11:03:59;99930.97;;;27.54;25.77
72570;BME280;60594;50.204;8.844;2022-09-02T11:06:30;99930.63;;;27.62;24.82
72570;BME280;60594;50.204;8.844;2022-09-02T11:09:07;99919.81;;;27.33;25.81
72570;BME280;60594;50.204;8.844;2022-09-02T11:11:39;99930.59;;;27.28;25.98
72570;BME280;60594;50.204;8.844;2022-09-02T11:14:25;99924.44;;;27.32;25.88
72570;BME280;60594;50.204;8.844;2022-09-02T11:17:14;99920.25;;;27.64;25.29
72570;BME280;60594;50.204;8.844;2022-09-02T11:23:05;99917.53;;;26.48;25.22
72570;BME280;60594;50.204;8.844;2022-09-02T11:25:41;99918.00;;;26.74;26.76
72570;BME280;60594;50.204;8.844;2022-09-02T11:31:19;99904.16;;;26.99;26.16
72570;BME280;60594;50.204;8.844;2022-09-02T11:33:50;99907.16;;;26.38;25.97
72570;BME280;60594;50.204;8.844;2022-09-02T11:36:19;99900.53;;;25.62;27.52
72570;BME280;60594;50.204;8.844;2022-09-02T11:39:03;99898.06;;;25.36;28.34
72570;BME280;60594;50.204;8.844;2022-09-02T11:41:43;99898.88;;;25.61;28.80
72570;BME280;60594;50.204;8.844;2022-09-02T11:44:39;99900.38;;;26.11;27.08
72570;BME280;60594;50.204;8.844;2022-09-02T11:47:31;99897.63;;;26.11;27.20
72570;BME280;60594;50.204;8.844;2022-09-02T11:53:45;99884.38;;;25.60;27.93
72570;BME280;60594;50.204;8.844;2022-09-02T11:56:16;99872.53;;;25.48;27.69
72570;BME280;60594;50.204;8.844;2022-09-02T11:58:46;99875.63;;;25.52;29.16
72570;BME280;60594;50.204;8.844;2022-09-02T12:03:45;99874.53;;;26.25;29.40
72570;BME280;60594;50.204;8.844;2022-09-02T12:06:17;99866.88;;;26.45;25.76
72570;BME280;60594;50.204;8.844;2022-09-02T12:14:09;99857.06;;;27.31;24.85
72570;BME280;60594;50.204;8.844;2022-09-02T12:16:42;99855.88;;;27.04;25.24
72570;BME280;60594;50.204;8.844;2022-09-02T12:24:54;99850.38;;;27.50;24.81
72570;BME280;60594;50.204;8.844;2022-09-02T12:30:10;99854.16;;;26.51;26.08
72570;BME280;60594;50.204;8.844;2022-09-02T12:35:29;99854.91;;;26.46;27.34
72570;BME280;60594;50.204;8.844;2022-09-02T12:38:15;99845.59;;;26.77;26.02
72570;BME280;60594;50.204;8.844;2022-09-02T12:46:45;99836.00;;;26.15;26.60
72570;BME280;60594;50.204;8.844;2022-09-02T12:52:03;99838.34;;;25.46;28.83
72570;BME280;60594;50.204;8.844;2022-09-02T12:57:05;99830.19;;;25.03;29.61
72570;BME280;60594;50.204;8.844;2022-09-02T12:59:33;99829.56;;;25.01;29.53
72570;BME280;60594;50.204;8.844;2022-09-02T13:02:22;99831.81;;;25.29;29.55
72570;BME280;60594;50.204;8.844;2022-09-02T13:10:55;99808.03;;;25.83;28.12
72570;BME280;60594;50.204;8.844;2022-09-02T13:13:55;99817.59;;;25.92;27.17
72570;BME280;60594;50.204;8.844;2022-09-02T13:16:37;99810.19;;;26.00;28.06
72570;BME280;60594;50.204;8.844;2022-09-02T13:28:19;99798.53;;;26.04;26.93
72570;BME280;60594;50.204;8.844;2022-09-02T13:33:42;99795.53;;;25.22;27.51
72570;BME280;60594;50.204;8.844;2022-09-02T13:36:08;99795.44;;;25.53;26.89
72570;BME280;60594;50.204;8.844;2022-09-02T13:38:35;99786.13;;;25.90;28.45
72570;BME280;60594;50.204;8.844;2022-09-02T13:41:01;99774.75;;;25.75;26.08
72570;BME280;60594;50.204;8.844;2022-09-02T13:43:28;99779.44;;;25.86;27.72
72570;BME280;60594;50.204;8.844;2022-09-02T13:45:58;99776.31;;;26.01;27.70
72570;BME280;60594;50.204;8.844;2022-09-02T13:48:28;99777.19;;;26.13;27.83
72570;BME280;60594;50.204;8.844;2022-09-02T13:50:58;99769.56;;;26.03;26.69
72570;BME280;60594;50.204;8.844;2022-09-02T13:53:32;99773.06;;;25.92;26.99
72570;BME280;60594;50.204;8.844;2022-09-02T13:56:01;99759.84;;;25.59;27.01
72570;BME280;60594;50.204;8.844;2022-09-02T14:00:55;99761.38;;;25.85;27.27
72570;BME280;60594;50.204;8.844;2022-09-02T14:03:22;99751.53;;;25.84;26.52
72570;BME280;60594;50.204;8.844;2022-09-02T14:05:51;99744.75;;;26.05;26.98
72570;BME280;60594;50.204;8.844;2022-09-02T14:08:21;99744.56;;;26.29;28.00
72570;BME280;60594;50.204;8.844;2022-09-02T14:10:49;99738.34;;;26.22;26.32
72570;BME280;60594;50.204;8.844;2022-09-02T14:13:18;99725.31;;;26.36;26.09
72570;BME280;60594;50.204;8.844;2022-09-02T14:15:45;99725.44;;;26.52;26.28
72570;BME280;60594;50.204;8.844;2022-09-02T14:18:19;99724.38;;;26.42;26.08
72570;BME280;60594;50.204;8.844;2022-09-02T14:23:30;99717.91;;;26.13;26.14
72570;BME280;60594;50.204;8.844;2022-09-02T14:26:00;99709.97;;;26.12;25.25
72570;BME280;60594;50.204;8.844;2022-09-02T14:28:29;99704.22;;;26.02;25.80
72570;BME280;60594;50.204;8.844;2022-09-02T14:31:03;99698.06;;;25.76;25.35
72570;BME280;60594;50.204;8.844;2022-09-02T14:33:40;99701.63;;;25.77;25.52
72570;BME280;60594;50.204;8.844;2022-09-02T14:43:49;99685.47;;;26.05;25.42
72570;BME280;60594;50.204;8.844;2022-09-02T14:46:28;99686.75;;;26.02;25.82
72570;BME280;60594;50.204;8.844;2022-09-02T14:49:03;99694.00;;;25.97;25.09
72570;BME280;60594;50.204;8.844;2022-09-02T14:51:45;99690.88;;;25.93;24.32
72570;BME280;60594;50.204;8.844;2022-09-02T14:59:47;99678.56;;;26.02;24.48
72570;BME280;60594;50.204;8.844;2022-09-02T15:04:57;99677.44;;;25.92;24.57
72570;BME280;60594;50.204;8.844;2022-09-02T15:07:24;99671.09;;;25.68;24.74
72570;BME280;60594;50.204;8.844;2022-09-02T15:09:51;99680.94;;;25.69;26.04
72570;BME280;60594;50.204;8.844;2022-09-02T15:12:21;99672.63;;;25.64;25.23
72570;BME280;60594;50.204;8.844;2022-09-02T15:14:50;99665.13;;;25.60;25.37
72570;BME280;60594;50.204;8.844;2022-09-02T15:17:17;99661.59;;;25.59;25.47
72570;BME280;60594;50.204;8.844;2022-09-02T15:19:44;99657.38;;;25.45;25.70